Time;durP1;ratioP1;P1;durP2;ratioP2;P2;SDS_P1;SDS_P2;PMS_P1;PMS_P2;Temp;Humidity;BMP_temperature;BMP_pressure;BME280_temperature;BME280_humidity;BME280_pressure;Samples;Min_cycle;Max_cycle;Signal;HPM_P1;HPM_P2
2022/03/17 00:02:09;;;;;;;23.88;13.70;;;10.50;99.90;;;;;;5054185;28;20025;-80
2022/03/17 00:04:34;;;;;;;26.27;14.10;;;10.50;99.90;;;;;;5060064;28;20025;-80
2022/03/17 00:07:00;;;;;;;25.45;14.75;;;10.40;99.90;;;;;;5058908;28;20025;-80
2022/03/17 00:09:26;;;;;;;24.48;14.27;;;10.40;99.90;;;;;;5059249;28;20036;-80
2022/03/17 00:11:52;;;;;;;23.10;14.10;;;10.30;99.90;;;;;;5057374;28;20025;-80
2022/03/17 00:14:19;;;;;;;23.20;14.23;;;10.40;99.90;;;;;;5043670;28;20080;-80
2022/03/17 00:16:44;;;;;;;26.38;14.38;;;10.30;99.90;;;;;;5050457;28;20036;-80
2022/03/17 00:19:10;;;;;;;24.70;15.18;;;10.30;99.90;;;;;;5041070;28;20021;-80
2022/03/17 00:21:36;;;;;;;25.80;15.38;;;10.30;99.90;;;;;;5049345;28;20069;-80
2022/03/17 00:24:03;;;;;;;29.85;14.93;;;10.30;99.90;;;;;;5039910;28;20024;-80
2022/03/17 00:26:29;;;;;;;26.58;15.35;;;10.30;99.90;;;;;;5039481;28;20036;-80
2022/03/17 00:28:55;;;;;;;24.58;15.18;;;10.30;99.90;;;;;;5039591;28;20059;-80
2022/03/17 00:31:21;;;;;;;28.83;14.88;;;10.30;99.90;;;;;;5039719;28;20051;-80
2022/03/17 00:33:46;;;;;;;25.48;15.18;;;10.30;99.90;;;;;;5047184;28;20025;-79
2022/03/17 00:36:12;;;;;;;25.20;14.30;;;10.30;99.90;;;;;;5038171;28;20481;-80
2022/03/17 00:38:37;;;;;;;27.13;15.82;;;10.30;99.90;;;;;;5044648;28;20013;-80
2022/03/17 00:41:03;;;;;;;25.45;14.95;;;10.30;99.90;;;;;;5058706;28;20021;-80
2022/03/17 00:43:29;;;;;;;25.50;15.57;;;10.30;99.90;;;;;;5059319;28;20021;-80
2022/03/17 00:45:55;;;;;;;26.30;15.57;;;10.20;99.90;;;;;;5041804;28;20064;-80
2022/03/17 00:48:20;;;;;;;26.55;15.57;;;10.20;99.90;;;;;;5050068;28;20032;-80
2022/03/17 00:50:46;;;;;;;26.95;14.98;;;10.20;99.90;;;;;;5058307;28;20408;-80
2022/03/17 00:53:12;;;;;;;29.98;16.42;;;10.20;1.00;;;;;;5047688;28;20034;-80
2022/03/17 00:55:37;;;;;;;25.25;15.07;;;10.20;1.00;;;;;;5043461;28;20031;-80
2022/03/17 00:58:03;;;;;;;37.28;17.73;;;10.20;85.80;;;;;;5056396;28;20387;-80
2022/03/17 01:00:29;;;;;;;26.52;15.02;;;10.10;99.90;;;;;;5056976;28;20009;-80
2022/03/17 01:02:57;;;;;;;27.92;16.45;;;10.00;99.90;;;;;;5048929;28;20296;-79
2022/03/17 01:05:23;;;;;;;28.02;16.13;;;10.00;99.90;;;;;;5057782;28;20021;-80
2022/03/17 01:07:50;;;;;;;29.95;16.63;;;10.00;99.90;;;;;;5057153;28;20108;-80
2022/03/17 01:10:18;;;;;;;29.20;16.95;;;10.00;99.90;;;;;;5040495;28;20033;-80
2022/03/17 01:12:46;;;;;;;28.35;16.45;;;10.00;99.90;;;;;;5057038;28;20024;-80
2022/03/17 01:15:17;;;;;;;29.35;17.67;;;10.00;99.90;;;;;;5056907;28;20124;-80
2022/03/17 01:17:42;;;;;;;31.27;17.52;;;9.90;86.40;;;;;;5049632;28;20025;-79
2022/03/17 01:20:09;;;;;;;30.20;17.48;;;9.90;1.00;;;;;;5057544;28;20053;-80
2022/03/17 01:22:36;;;;;;;29.30;17.50;;;9.90;1.00;;;;;;5047562;28;20021;-79
2022/03/17 01:25:04;;;;;;;29.55;17.40;;;9.90;1.00;;;;;;5056123;28;20033;-80
2022/03/17 01:27:34;;;;;;;28.77;17.02;;;9.90;1.00;;;;;;5055772;28;20036;-79
2022/03/17 01:30:00;;;;;;;31.25;17.52;;;9.80;1.00;;;;;;5056234;28;20017;-80
2022/03/17 01:32:26;;;;;;;30.80;18.25;;;9.90;1.00;;;;;;5055933;28;20033;-79
2022/03/17 01:34:51;;;;;;;28.83;17.38;;;9.80;1.00;;;;;;5049799;28;20028;-80
2022/03/17 01:37:17;;;;;;;31.13;17.75;;;9.80;1.00;;;;;;5043764;28;20033;-80
2022/03/17 01:39:42;;;;;;;30.35;17.45;;;9.80;1.00;;;;;;5044877;28;20017;-80
2022/03/17 01:42:10;;;;;;;31.20;17.25;;;9.80;1.00;;;;;;5054378;28;20036;-80
2022/03/17 01:44:37;;;;;;;28.88;15.98;;;9.80;1.00;;;;;;5054096;28;20021;-79
2022/03/17 01:49:47;;;;;;;33.03;18.60;;;9.80;1.00;;;;;;5034213;28;20037;-80
2022/03/17 01:52:13;;;;;;;34.42;18.50;;;9.80;1.00;;;;;;5034038;28;20013;-79
2022/03/17 01:54:39;;;;;;;32.67;18.90;;;9.80;1.00;;;;;;5033844;28;20018;-79
2022/03/17 01:57:07;;;;;;;33.08;18.42;;;9.80;1.00;;;;;;5033974;28;20041;-79
2022/03/17 01:59:34;;;;;;;31.48;19.48;;;9.80;1.00;;;;;;5033637;28;20021;-80
2022/03/17 02:02:02;;;;;;;36.40;19.92;;;9.70;1.00;;;;;;5034084;28;20026;-79
2022/03/17 02:04:28;;;;;;;32.15;18.05;;;9.70;1.00;;;;;;5034480;28;20456;-79
2022/03/17 02:06:53;;;;;;;33.70;19.55;;;9.80;1.00;;;;;;5033699;28;20496;-80
2022/03/17 02:09:19;;;;;;;33.85;19.08;;;9.80;1.00;;;;;;5033683;28;20511;-79
2022/03/17 02:14:34;;;;;;;35.35;19.58;;;9.80;1.00;;;;;;5033557;28;20056;-79
2022/03/17 02:17:00;;;;;;;34.97;20.80;;;9.80;1.00;;;;;;5034011;28;20706;-79
2022/03/17 02:19:25;;;;;;;34.38;20.05;;;9.80;1.00;;;;;;5033434;28;20104;-79
2022/03/17 02:21:51;;;;;;;40.10;21.92;;;9.80;1.00;;;;;;5033466;28;20018;-79
2022/03/17 02:27:18;;;;;;;39.80;21.42;;;9.80;1.00;;;;;;5011467;28;20173;-79
2022/03/17 02:29:44;;;;;;;35.20;19.95;;;9.80;1.00;;;;;;5044744;28;20110;-79
2022/03/17 02:35:32;;;;;;;35.13;20.27;;;9.80;1.00;;;;;;5053928;28;20079;-79
2022/03/17 02:37:58;;;;;;;36.42;20.60;;;9.80;1.00;;;;;;5053357;28;20025;-79
2022/03/17 02:40:25;;;;;;;34.45;18.88;;;9.80;1.00;;;;;;5053030;28;20033;-79
2022/03/17 02:42:52;;;;;;;36.35;20.05;;;9.70;1.00;;;;;;5053248;28;20028;-80
2022/03/17 02:45:18;;;;;;;37.40;20.27;;;9.70;1.00;;;;;;5053342;28;20046;-80
2022/03/17 02:47:44;;;;;;;40.08;21.17;;;9.70;1.00;;;;;;5054462;28;20361;-80
2022/03/17 02:50:10;;;;;;;37.85;20.58;;;9.70;99.90;;;;;;5054325;28;20031;-80
2022/03/17 02:52:36;;;;;;;38.00;20.13;;;9.70;99.90;;;;;;5054826;28;20468;-80
2022/03/17 02:55:02;;;;;;;37.20;20.52;;;9.60;99.90;;;;;;5056081;28;20017;-80
2022/03/17 02:57:28;;;;;;;37.97;20.70;;;9.60;99.90;;;;;;5058177;28;20118;-80
2022/03/17 02:59:54;;;;;;;37.25;19.25;;;9.50;99.90;;;;;;5059358;28;20024;-80
2022/03/17 03:02:22;;;;;;;37.25;20.58;;;9.60;99.90;;;;;;5060753;28;20025;-80
2022/03/17 03:04:48;;;;;;;35.60;19.95;;;9.60;99.90;;;;;;5062930;28;20121;-80
2022/03/17 03:07:14;;;;;;;35.35;19.52;;;9.60;99.90;;;;;;5063532;28;20052;-81
2022/03/17 03:09:39;;;;;;;35.75;19.45;;;9.60;99.90;;;;;;5061992;28;20025;-80
2022/03/17 03:12:11;;;;;;;33.03;18.40;;;9.60;99.90;;;;;;5056545;28;20044;-80
2022/03/17 03:14:37;;;;;;;37.72;18.88;;;9.60;99.90;;;;;;5066892;28;20055;-80
2022/03/17 03:17:02;;;;;;;33.08;17.35;;;9.60;99.90;;;;;;5066147;28;20052;-80
2022/03/17 03:19:28;;;;;;;38.00;19.10;;;9.60;99.90;;;;;;5066587;28;20484;-80
2022/03/17 03:21:54;;;;;;;36.03;19.05;;;9.60;99.90;;;;;;5067406;28;20139;-81
2022/03/17 03:24:19;;;;;;;36.67;19.10;;;9.60;99.90;;;;;;5058408;28;20025;-81
2022/03/17 03:26:45;;;;;;;35.92;17.77;;;9.70;99.90;;;;;;5058201;28;20029;-81
2022/03/17 03:29:25;;;;;;;35.05;19.02;;;9.60;99.90;;;;;;5065812;28;20104;-81
2022/03/17 03:31:55;;;;;;;;;;;9.70;99.90;;;;;;5064887;28;20098;-80
2022/03/17 03:34:21;;;;;;;38.03;18.48;;;9.60;99.90;;;;;;5054567;28;19909;-81
2022/03/17 03:39:33;;;;;;;35.08;17.98;;;9.70;99.90;;;;;;5050598;28;20542;-80
2022/03/17 03:41:59;;;;;;;36.53;18.92;;;9.60;99.90;;;;;;5056734;28;20108;-81
2022/03/17 03:44:24;;;;;;;34.28;17.52;;;9.70;99.90;;;;;;5065604;28;20078;-81
2022/03/17 03:46:50;;;;;;;17.10;9.20;;;9.70;99.90;;;;;;5065061;28;20060;-81
2022/03/17 03:49:16;;;;;;;10.70;6.18;;;9.40;99.90;;;;;;5062281;28;20025;-81
2022/03/17 03:51:41;;;;;;;11.82;6.35;;;9.20;99.90;;;;;;5061432;28;20029;-81
2022/03/17 03:54:17;;;;;;;11.85;7.00;;;9.00;99.90;;;;;;5067506;28;20024;-81
2022/03/17 03:56:48;;;;;;;13.52;6.55;;;8.90;99.90;;;;;;5065787;28;20025;-81
2022/03/17 03:59:20;;;;;;;12.30;5.22;;;8.90;99.90;;;;;;5056287;28;20029;-81
2022/03/17 04:01:49;;;;;;;8.98;5.80;;;8.80;99.90;;;;;;5057841;28;20112;-81
2022/03/17 04:04:18;;;;;;;8.95;5.50;;;8.70;99.90;;;;;;5055105;28;20037;-81
2022/03/17 04:06:55;;;;;;;9.85;5.50;;;8.70;99.90;;;;;;5056652;28;20032;-81
2022/03/17 04:09:23;;;;;;;11.27;5.45;;;8.60;99.90;;;;;;5065330;28;20043;-81
2022/03/17 04:11:50;;;;;;;10.15;4.88;;;8.60;99.90;;;;;;5064870;28;20083;-80
2022/03/17 04:14:16;;;;;;;9.93;4.88;;;8.50;99.90;;;;;;5063875;28;20512;-81
2022/03/17 04:16:43;;;;;;;10.10;4.68;;;8.50;99.90;;;;;;5047064;28;20029;-81
2022/03/17 04:19:12;;;;;;;8.65;4.40;;;8.50;99.90;;;;;;5056088;28;20036;-81
2022/03/17 04:21:38;;;;;;;7.53;4.50;;;8.50;99.90;;;;;;5066648;28;20025;-81
2022/03/17 04:24:05;;;;;;;9.57;4.57;;;8.40;99.90;;;;;;5059679;28;20087;-81
2022/03/17 04:26:30;;;;;;;10.93;5.05;;;8.40;99.90;;;;;;5065100;28;20405;-80
2022/03/17 04:28:56;;;;;;;11.45;4.50;;;8.40;99.90;;;;;;5063518;28;20032;-80
2022/03/17 04:31:22;;;;;;;11.25;5.57;;;8.30;99.90;;;;;;5064484;28;20040;-81
2022/03/17 04:33:48;;;;;;;15.23;6.13;;;8.30;99.90;;;;;;5053096;28;20060;-81
2022/03/17 04:36:14;;;;;;;15.48;6.97;;;8.20;99.90;;;;;;5063538;28;20468;-81
2022/03/17 04:38:41;;;;;;;18.38;7.20;;;8.20;99.90;;;;;;5051419;28;20017;-81
2022/03/17 04:41:08;;;;;;;17.15;7.53;;;8.20;99.90;;;;;;5066798;28;20236;-81
2022/03/17 04:43:34;;;;;;;18.38;6.93;;;8.20;99.90;;;;;;5057955;28;20017;-81
2022/03/17 04:46:00;;;;;;;19.58;8.60;;;8.10;99.90;;;;;;5064625;28;20033;-81
2022/03/17 04:48:25;;;;;;;14.70;6.95;;;8.10;99.90;;;;;;5064633;28;20035;-81
2022/03/17 04:50:51;;;;;;;18.40;7.50;;;8.10;99.90;;;;;;5050196;28;20108;-80
2022/03/17 04:53:32;;;;;;;17.13;6.15;;;8.10;99.90;;;;;;5052539;28;20036;-81
2022/03/17 04:56:08;;;;;;;14.50;4.88;;;8.00;99.90;;;;;;5062841;28;20056;-81
2022/03/17 04:58:37;;;;;;;13.43;3.53;;;8.00;99.90;;;;;;5060660;28;20021;-81
2022/03/17 05:01:04;;;;;;;13.55;3.30;;;7.90;99.90;;;;;;5061350;28;20472;-81
2022/03/17 05:03:31;;;;;;;10.50;3.13;;;7.80;99.90;;;;;;5062246;28;20029;-81
2022/03/17 05:05:57;;;;;;;10.60;2.70;;;7.80;99.90;;;;;;5047772;28;20036;-81
2022/03/17 05:08:23;;;;;;;10.07;2.83;;;7.70;97.50;;;;;;5058112;28;20029;-81
2022/03/17 05:10:52;;;;;;;13.32;2.78;;;7.70;1.00;;;;;;5039386;28;20084;-81
2022/03/17 05:13:18;;;;;;;8.65;2.60;;;7.70;1.00;;;;;;5039653;28;20104;-81
2022/03/17 05:15:44;;;;;;;15.70;3.03;;;7.70;1.00;;;;;;5039533;28;20061;-82
2022/03/17 05:18:09;;;;;;;14.60;3.85;;;7.70;1.00;;;;;;5061542;28;20079;-81
2022/03/17 05:20:36;;;;;;;8.80;2.85;;;7.70;1.00;;;;;;5046530;28;20026;-81
2022/03/17 05:23:04;;;;;;;11.85;3.33;;;7.70;99.90;;;;;;5049556;28;20051;-81
2022/03/17 05:25:32;;;;;;;8.98;2.78;;;7.70;99.90;;;;;;5054381;28;20603;-81
2022/03/17 05:27:59;;;;;;;13.88;3.25;;;7.70;99.90;;;;;;5042035;28;20034;-81
2022/03/17 05:30:27;;;;;;;12.05;3.03;;;7.70;99.90;;;;;;5042456;28;20358;-81
2022/03/17 05:32:53;;;;;;;8.35;2.55;;;7.70;99.90;;;;;;5055521;28;20056;-81
2022/03/17 05:35:19;;;;;;;6.15;2.40;;;7.70;99.90;;;;;;5046487;28;20507;-81
2022/03/17 05:37:44;;;;;;;14.02;3.35;;;7.70;99.90;;;;;;5043765;28;20020;-81
2022/03/17 05:40:15;;;;;;;13.05;2.30;;;7.60;99.90;;;;;;5047275;28;20018;-82
2022/03/17 05:42:46;;;;;;;11.07;1.90;;;7.60;99.90;;;;;;5049765;28;20025;-81
2022/03/17 05:45:13;;;;;;;2.97;0.90;;;7.70;99.90;;;;;;5062404;28;20033;-82
2022/03/17 05:47:44;;;;;;;5.88;1.40;;;7.60;99.90;;;;;;5071905;28;20079;-81
2022/03/17 05:50:13;;;;;;;7.95;1.42;;;7.60;99.90;;;;;;5074820;28;20021;-81
2022/03/17 05:52:39;;;;;;;7.13;1.73;;;7.60;99.90;;;;;;5069944;28;20013;-82
2022/03/17 05:55:13;;;;;;;4.63;1.15;;;7.60;99.90;;;;;;5068119;28;20025;-82
2022/03/17 05:57:43;;;;;;;4.03;1.15;;;7.60;99.90;;;;;;5069760;28;20073;-81
2022/03/17 06:00:11;;;;;;;10.95;1.92;;;7.50;99.90;;;;;;5075016;28;20021;-81
2022/03/17 06:02:40;;;;;;;5.78;1.42;;;7.50;99.90;;;;;;5075904;28;20043;-82
2022/03/17 06:05:07;;;;;;;6.28;1.10;;;7.50;99.90;;;;;;5076492;28;20029;-82
2022/03/17 06:07:41;;;;;;;3.13;0.57;;;7.50;99.90;;;;;;5075604;28;20051;-81
2022/03/17 06:10:10;;;;;;;11.43;2.58;;;7.50;99.90;;;;;;5068950;28;20021;-81
2022/03/17 06:12:36;;;;;;;7.18;1.25;;;7.50;99.90;;;;;;5073045;28;20033;-81
2022/03/17 06:15:03;;;;;;;5.95;1.25;;;7.50;99.90;;;;;;5066726;28;20041;-81
2022/03/17 06:17:49;;;;;;;8.73;1.65;;;7.40;99.90;;;;;;5076264;28;20037;-82
2022/03/17 06:20:17;;;;;;;11.00;1.05;;;7.50;99.90;;;;;;5072362;28;20045;-82
2022/03/17 06:22:50;;;;;;;4.93;0.90;;;7.50;99.90;;;;;;5072409;28;20055;-81
2022/03/17 06:25:17;;;;;;;9.90;2.05;;;7.50;99.90;;;;;;5072770;28;20028;-82
2022/03/17 06:27:43;;;;;;;5.60;0.90;;;7.50;99.90;;;;;;5063478;28;20025;-81
2022/03/17 06:30:12;;;;;;;10.82;1.40;;;7.50;99.90;;;;;;5076065;28;20023;-81
2022/03/17 06:32:39;;;;;;;8.85;1.02;;;7.50;99.90;;;;;;5076322;28;20014;-82
2022/03/17 06:35:07;;;;;;;10.90;1.27;;;7.50;99.90;;;;;;5071767;28;20028;-82
2022/03/17 06:37:33;;;;;;;6.93;0.90;;;7.50;99.90;;;;;;5075714;28;20033;-82
2022/03/17 06:39:58;;;;;;;3.88;0.65;;;7.50;99.90;;;;;;5061998;28;20038;-82
2022/03/17 06:42:24;;;;;;;7.13;1.10;;;7.50;99.90;;;;;;5072177;28;20021;-81
2022/03/17 06:44:49;;;;;;;3.75;0.85;;;7.50;80.50;;;;;;5069812;28;20027;-81
2022/03/17 06:47:15;;;;;;;7.57;1.27;;;7.50;38.00;;;;;;5072019;28;20037;-82
2022/03/17 06:49:40;;;;;;;8.50;1.08;;;7.50;49.30;;;;;;5071229;28;20041;-82
2022/03/17 06:52:06;;;;;;;10.10;1.38;;;7.50;64.80;;;;;;5079150;28;20027;-81
2022/03/17 06:54:32;;;;;;;13.10;1.17;;;7.50;25.80;;;;;;5067285;28;20029;-81
2022/03/17 06:56:59;;;;;;;9.85;1.85;;;7.50;18.90;;;;;;5075721;28;20036;-81
2022/03/17 06:59:25;;;;;;;4.30;1.02;;;7.50;1.00;;;;;;5075725;28;20052;-81
2022/03/17 07:01:50;;;;;;;4.45;1.02;;;7.50;12.10;;;;;;5079812;28;20029;-81
2022/03/17 07:04:16;;;;;;;8.95;1.00;;;7.50;4.70;;;;;;5072943;28;20013;-81
2022/03/17 07:06:41;;;;;;;8.95;0.90;;;7.50;9.20;;;;;;5077065;28;20036;-81
2022/03/17 07:09:07;;;;;;;10.40;1.98;;;7.50;10.40;;;;;;5079008;28;20036;-81
2022/03/17 07:11:32;;;;;;;6.63;1.15;;;7.50;1.00;;;;;;5072970;28;20017;-81
2022/03/17 07:13:58;;;;;;;13.73;1.50;;;7.50;2.90;;;;;;5074979;28;20037;-81
2022/03/17 07:16:23;;;;;;;7.18;1.40;;;7.50;1.00;;;;;;5078518;28;20017;-81
2022/03/17 07:18:49;;;;;;;7.05;1.65;;;7.50;1.00;;;;;;5078481;28;20021;-81
2022/03/17 07:21:15;;;;;;;9.30;1.08;;;7.50;1.00;;;;;;5071816;28;20037;-82
2022/03/17 07:23:41;;;;;;;7.45;1.58;;;7.50;1.00;;;;;;5078663;28;20037;-81
2022/03/17 07:26:06;;;;;;;13.82;1.90;;;7.50;1.00;;;;;;5078456;28;20051;-81
2022/03/17 07:28:32;;;;;;;10.10;1.20;;;7.50;1.00;;;;;;5070876;28;20017;-81
2022/03/17 07:30:58;;;;;;;4.38;1.00;;;7.60;1.00;;;;;;5078486;28;20051;-81
2022/03/17 07:33:23;;;;;;;9.25;1.02;;;7.60;1.00;;;;;;5067329;28;20063;-81
2022/03/17 07:35:49;;;;;;;10.70;1.73;;;7.60;1.00;;;;;;5070197;28;20016;-82
2022/03/17 07:38:15;;;;;;;15.52;1.60;;;7.70;1.00;;;;;;5078528;28;20065;-81
2022/03/17 07:40:41;;;;;;;10.05;1.40;;;7.90;1.00;;;;;;5070380;28;20036;-81
2022/03/17 07:43:07;;;;;;;10.45;1.30;;;8.10;1.00;;;;;;5070507;28;20025;-81
2022/03/17 07:45:34;;;;;;;8.20;1.13;;;8.00;1.00;;;;;;5070013;28;20009;-81
2022/03/17 07:47:59;;;;;;;10.20;1.70;;;8.10;1.00;;;;;;5078066;28;20033;-81
2022/03/17 07:50:25;;;;;;;11.70;1.67;;;8.20;1.00;;;;;;5078256;28;20017;-81
2022/03/17 07:52:50;;;;;;;13.30;1.50;;;8.10;1.00;;;;;;5078220;28;20025;-81
2022/03/17 07:55:17;;;;;;;9.25;1.80;;;8.20;1.00;;;;;;5071753;28;20116;-81
2022/03/17 07:57:43;;;;;;;8.32;1.13;;;8.10;1.00;;;;;;5062852;28;20001;-81
2022/03/17 08:00:13;;;;;;;7.25;1.08;;;8.10;1.00;;;;;;5073626;28;20060;-81
2022/03/17 08:02:42;;;;;;;9.18;1.50;;;8.20;1.00;;;;;;5067142;28;20041;-81
2022/03/17 08:05:12;;;;;;;6.63;0.77;;;8.30;1.00;;;;;;5075737;28;20029;-82
2022/03/17 08:07:38;;;;;;;7.85;0.82;;;8.50;1.00;;;;;;5067134;28;20048;-81
2022/03/17 08:10:04;;;;;;;11.95;1.58;;;8.80;1.00;;;;;;5062035;28;20202;-82
2022/03/17 08:12:31;;;;;;;7.47;1.10;;;9.40;1.00;;;;;;5063223;28;20085;-82
2022/03/17 08:14:58;;;;;;;8.43;1.08;;;10.20;1.00;;;;;;5057321;28;20330;-81
2022/03/17 08:17:24;;;;;;;5.35;0.90;;;11.60;99.90;;;;;;5060263;28;20399;-81
2022/03/17 08:19:49;;;;;;;9.88;1.50;;;10.70;99.90;;;;;;5068132;28;20070;-81
2022/03/17 08:22:15;;;;;;;10.45;1.60;;;9.90;99.90;;;;;;5068842;28;20013;-81
2022/03/17 08:24:40;;;;;;;10.63;1.27;;;9.30;1.00;;;;;;5067367;28;20028;-82
2022/03/17 08:27:07;;;;;;;11.43;2.22;;;10.90;99.90;;;;;;5069224;28;20055;-81
2022/03/17 08:29:32;;;;;;;11.85;1.80;;;14.90;99.90;;;;;;5068431;28;20021;-81
2022/03/17 08:31:59;;;;;;;12.40;1.63;;;11.60;99.90;;;;;;5066024;28;20015;-81
2022/03/17 08:34:26;;;;;;;10.98;1.35;;;13.20;99.90;;;;;;5064257;28;20009;-81
2022/03/17 08:36:54;;;;;;;6.35;1.48;;;14.60;99.90;;;;;;5068027;28;20060;-81
2022/03/17 08:39:20;;;;;;;11.98;3.28;;;16.50;99.90;;;;;;5060135;28;20024;-81
2022/03/17 08:41:45;;;;;;;5.20;1.35;;;15.70;99.90;;;;;;5070195;28;20013;-81
2022/03/17 08:44:11;;;;;;;6.93;1.40;;;20.00;99.90;;;;;;5065631;28;20017;-81
2022/03/17 08:49:22;;;;;;;4.68;1.05;;;20.50;99.90;;;;;;5069327;28;20037;-80
2022/03/17 08:51:56;;;;;;;7.72;1.05;;;21.50;99.90;;;;;;5069588;28;20037;-81
2022/03/17 08:54:24;;;;;;;6.93;1.40;;;18.90;99.90;;;;;;5062202;28;20006;-81
2022/03/17 08:56:59;;;;;;;4.60;1.48;;;16.10;99.90;;;;;;5057657;28;20026;-81
2022/03/17 08:59:34;;;;;;;6.07;1.05;;;15.20;99.90;;;;;;5057532;28;20021;-81
2022/03/17 09:02:01;;;;;;;6.13;0.90;;;15.90;99.90;;;;;;5057614;28;20026;-82
2022/03/17 09:04:28;;;;;;;8.00;1.30;;;18.50;99.90;;;;;;5074625;28;20085;-81
2022/03/17 09:06:59;;;;;;;5.35;1.35;;;18.20;99.90;;;;;;5055552;28;20021;-80
2022/03/17 09:09:32;;;;;;;6.95;1.20;;;17.20;99.90;;;;;;5060905;28;20021;-81
2022/03/17 09:11:58;;;;;;;7.78;1.80;;;20.50;99.90;;;;;;5055476;28;20064;-81
2022/03/17 09:14:25;;;;;;;9.70;1.33;;;21.20;99.90;;;;;;5056607;28;20050;-81
2022/03/17 09:16:51;;;;;;;7.07;1.23;;;21.40;99.90;;;;;;5059629;28;20033;-81
2022/03/17 09:19:19;;;;;;;11.35;1.38;;;19.80;99.90;;;;;;5061334;28;20041;-80
2022/03/17 09:21:45;;;;;;;6.63;1.35;;;21.10;99.90;;;;;;5067436;28;20175;-81
2022/03/17 09:24:11;;;;;;;6.40;1.38;;;23.10;99.90;;;;;;5073281;28;20047;-81
2022/03/17 09:26:36;;;;;;;8.95;1.23;;;23.50;99.90;;;;;;5064450;28;20013;-81
2022/03/17 09:29:03;;;;;;;6.32;1.23;;;25.00;99.90;;;;;;5064065;28;20048;-81
2022/03/17 09:31:29;;;;;;;7.85;1.40;;;24.00;99.90;;;;;;5070276;28;20009;-81
2022/03/17 09:33:55;;;;;;;11.30;1.88;;;26.50;99.90;;;;;;5063583;28;20017;-81
2022/03/17 09:36:21;;;;;;;4.90;1.05;;;23.70;99.90;;;;;;5069953;28;20484;-81
2022/03/17 09:39:39;;;;;;;4.80;1.10;;;24.50;99.90;;;;;;5062323;28;20076;-81
2022/03/17 09:41:35;;;;;;;4.25;0.95;;;25.60;99.90;;;;;;5060101;28;20044;-81
2022/03/17 09:44:02;;;;;;;8.48;1.58;;;25.00;99.90;;;;;;5062234;28;20020;-83
2022/03/17 09:46:28;;;;;;;6.63;1.80;;;23.30;99.90;;;;;;5073909;28;20037;-82
2022/03/17 09:48:55;;;;;;;8.05;1.05;;;24.10;99.90;;;;;;5074013;28;20069;-82
2022/03/17 09:51:25;;;;;;;10.07;1.60;;;21.30;99.90;;;;;;5061827;28;20040;-82
2022/03/17 09:53:53;;;;;;;7.65;1.15;;;23.50;99.90;;;;;;5063673;28;20029;-82
2022/03/17 09:56:23;;;;;;;3.97;1.13;;;21.00;99.90;;;;;;5059102;28;20028;-82
2022/03/17 09:58:58;;;;;;;7.53;1.23;;;21.80;99.90;;;;;;5062381;28;20036;-82
2022/03/17 10:01:28;;;;;;;4.30;0.80;;;22.70;99.90;;;;;;5065288;28;20067;-82
2022/03/17 10:04:01;;;;;;;10.13;1.30;;;23.90;99.90;;;;;;5071528;28;20029;-82
2022/03/17 10:06:28;;;;;;;12.60;2.20;;;22.20;99.90;;;;;;5063355;28;20080;-82
2022/03/17 10:08:55;;;;;;;10.73;3.13;;;22.70;99.90;;;;;;5063114;28;20025;-82
2022/03/17 10:11:26;;;;;;;7.15;1.98;;;23.10;99.90;;;;;;5071461;28;20033;-82
2022/03/17 10:13:54;;;;;;;15.85;3.10;;;19.50;99.90;;;;;;5067344;28;20418;-83
2022/03/17 10:16:20;;;;;;;6.18;1.75;;;19.90;99.90;;;;;;5044464;28;20117;-82
2022/03/17 10:18:59;;;;;;;9.70;2.35;;;19.70;99.90;;;;;;5059159;28;20487;-81
2022/03/17 10:21:27;;;;;;;7.80;2.13;;;19.70;99.90;;;;;;5064212;28;20059;-83
2022/03/17 10:24:06;;;;;;;5.70;1.33;;;23.90;99.90;;;;;;5049666;28;20036;-81
2022/03/17 10:26:46;;;;;;;6.55;1.38;;;25.00;99.90;;;;;;5063651;28;20040;-81
2022/03/17 10:29:19;;;;;;;13.43;2.92;;;21.00;99.90;;;;;;5055123;28;20030;-81
2022/03/17 10:31:52;;;;;;;5.20;1.17;;;22.20;99.90;;;;;;5049476;28;20354;-81
2022/03/17 10:34:18;;;;;;;5.72;1.83;;;22.40;99.90;;;;;;5052869;28;20028;-81
2022/03/17 10:36:48;;;;;;;6.47;1.30;;;22.50;99.90;;;;;;5052069;28;20017;-81
2022/03/17 10:39:14;;;;;;;10.07;1.67;;;20.90;99.90;;;;;;5044775;28;20029;-81
2022/03/17 10:41:47;;;;;;;6.72;2.20;;;17.40;99.90;;;;;;5053610;28;20022;-81
2022/03/17 10:44:15;;;;;;;10.82;1.77;;;17.10;99.90;;;;;;5049318;28;20399;-81
2022/03/17 10:47:01;;;;;;;14.02;5.00;;;18.50;99.90;;;;;;5057681;28;20034;-81
2022/03/17 10:49:27;;;;;;;14.52;2.65;;;17.00;99.90;;;;;;5045791;28;20037;-81
2022/03/17 10:51:54;;;;;;;13.35;4.95;;;16.20;99.90;;;;;;5052384;28;20036;-81
2022/03/17 10:54:20;;;;;;;11.32;2.30;;;17.20;99.90;;;;;;5048612;28;20081;-81
2022/03/17 10:57:18;;;;;;;8.05;1.58;;;16.80;99.90;;;;;;5055289;28;20503;-81
2022/03/17 10:59:47;;;;;;;11.80;3.08;;;15.50;99.90;;;;;;5034034;28;20089;-81
2022/03/17 11:02:17;;;;;;;10.30;3.10;;;15.80;99.90;;;;;;5058298;28;20346;-81
2022/03/17 11:04:44;;;;;;;9.82;1.85;;;15.70;99.90;;;;;;5051822;28;20387;-81
2022/03/17 11:07:14;;;;;;;13.13;2.58;;;14.80;99.90;;;;;;5049069;28;20043;-81
2022/03/17 11:09:41;;;;;;;14.15;3.15;;;15.40;99.90;;;;;;5047404;28;20021;-81
2022/03/17 11:12:17;;;;;;;9.77;2.80;;;15.80;99.90;;;;;;5055791;28;20017;-81
2022/03/17 11:14:44;;;;;;;5.90;1.75;;;16.00;99.90;;;;;;5041687;28;20044;-81
2022/03/17 11:17:14;;;;;;;8.77;2.00;;;14.20;99.90;;;;;;5052262;28;20415;-80
2022/03/17 11:19:44;;;;;;;11.68;2.22;;;14.20;99.90;;;;;;5050453;28;20072;-81
2022/03/17 11:22:14;;;;;;;17.30;5.97;;;14.60;99.90;;;;;;5048832;28;20392;-81
2022/03/17 11:24:39;;;;;;;16.08;2.90;;;14.80;99.90;;;;;;5049520;28;20150;-81
2022/03/17 11:27:13;;;;;;;8.45;1.88;;;14.10;99.90;;;;;;5048582;28;20059;-81
2022/03/17 11:29:47;;;;;;;28.02;10.57;;;14.10;99.90;;;;;;5049610;28;20041;-81
2022/03/17 11:32:54;;;;;;;9.80;3.20;;;14.00;99.90;;;;;;5039291;28;20030;-81
2022/03/17 11:35:32;;;;;;;7.78;1.75;;;13.50;99.90;;;;;;5034545;28;20106;-81
2022/03/17 11:38:22;;;;;;;9.50;1.88;;;13.70;99.90;;;;;;5040254;28;20036;-81
2022/03/17 11:41:12;;;;;;;14.75;2.55;;;14.00;99.90;;;;;;5044281;28;20025;-81
2022/03/17 11:43:46;;;;;;;9.53;1.37;;;14.20;99.90;;;;;;5038109;28;20029;-81
2022/03/17 11:46:23;;;;;;;13.38;3.20;;;13.60;99.90;;;;;;5036688;28;20362;-81
2022/03/17 11:48:52;;;;;;;8.50;2.17;;;13.10;99.90;;;;;;5036941;28;20045;-81
2022/03/17 11:51:18;;;;;;;8.30;1.70;;;13.10;99.90;;;;;;5040214;28;20083;-80
2022/03/17 11:54:03;;;;;;;9.00;1.75;;;12.90;99.90;;;;;;5035995;28;20507;-80
2022/03/17 11:56:42;;;;;;;10.05;1.75;;;12.80;99.90;;;;;;5039790;28;20120;-80
2022/03/17 11:59:09;;;;;;;7.28;1.45;;;12.80;99.90;;;;;;5037794;28;20068;-81
2022/03/17 12:01:41;;;;;;;9.57;1.88;;;12.70;99.90;;;;;;5047408;28;20083;-80
2022/03/17 12:04:08;;;;;;;5.65;1.20;;;13.00;99.90;;;;;;5037961;28;20056;-81
2022/03/17 12:06:36;;;;;;;6.45;1.25;;;13.00;99.90;;;;;;5047172;28;20036;-81
2022/03/17 12:09:04;;;;;;;9.65;1.95;;;12.70;99.90;;;;;;5049463;28;20037;-81
2022/03/17 12:11:39;;;;;;;5.88;1.23;;;12.40;99.90;;;;;;5046988;28;20029;-80
2022/03/17 12:16:51;;;;;;;7.38;1.60;;;12.70;99.90;;;;;;5043753;28;20421;-81
2022/03/17 12:19:26;;;;;;;6.90;1.20;;;12.90;99.90;;;;;;5043086;28;20555;-80
2022/03/17 12:21:58;;;;;;;5.53;1.05;;;12.30;99.90;;;;;;5054165;28;20029;-80
2022/03/17 12:24:47;;;;;;;7.53;1.13;;;12.50;99.90;;;;;;5051250;28;20029;-81
2022/03/17 12:27:29;;;;;;;5.97;0.93;;;12.70;99.90;;;;;;5045948;28;20038;-81
2022/03/17 12:29:57;;;;;;;5.18;1.02;;;12.70;99.90;;;;;;5047466;28;20017;-81
2022/03/17 12:32:23;;;;;;;11.15;1.70;;;12.60;99.90;;;;;;5037942;28;20512;-80
2022/03/17 12:34:52;;;;;;;7.78;1.00;;;12.70;99.90;;;;;;5049119;28;20025;-80
2022/03/17 12:37:21;;;;;;;6.38;1.17;;;12.80;99.90;;;;;;5042671;28;20090;-81
2022/03/17 12:39:54;;;;;;;5.85;1.10;;;12.40;99.90;;;;;;5039465;28;20507;-81
2022/03/17 12:42:24;;;;;;;7.43;1.25;;;12.40;99.90;;;;;;5047237;28;20033;-80
2022/03/17 12:45:04;;;;;;;3.37;0.60;;;12.80;99.90;;;;;;5043103;28;20025;-80
2022/03/17 12:47:31;;;;;;;5.65;0.60;;;12.50;99.90;;;;;;5041312;28;20065;-80
2022/03/17 12:49:58;;;;;;;5.70;0.77;;;12.70;99.90;;;;;;5039633;28;20266;-80
2022/03/17 12:52:30;;;;;;;5.20;1.00;;;12.70;99.90;;;;;;5047839;28;20079;-80
2022/03/17 12:54:58;;;;;;;6.82;1.00;;;12.50;99.90;;;;;;5038838;28;20021;-80
2022/03/17 12:57:26;;;;;;;7.13;1.40;;;12.50;99.90;;;;;;5037072;28;20377;-80
2022/03/17 12:59:52;;;;;;;7.68;1.20;;;12.30;99.90;;;;;;5037779;28;20413;-80
2022/03/17 13:02:19;;;;;;;6.47;1.20;;;12.40;99.90;;;;;;5053774;28;20100;-81
2022/03/17 13:04:48;;;;;;;4.97;1.10;;;12.70;99.90;;;;;;5053539;28;20460;-80
2022/03/17 13:07:15;;;;;;;5.18;0.77;;;12.70;99.90;;;;;;5053981;28;20025;-80
2022/03/17 13:09:42;;;;;;;8.90;1.25;;;12.60;99.90;;;;;;5053451;28;20037;-80
2022/03/17 13:15:10;;;;;;;4.70;0.70;;;12.70;99.90;;;;;;5053392;28;20060;-80